Redwood City, CA (94065)

5:52 PM PDT on September 04, 2015 (GMT -0700)
Neighborhood 4 | | Change Station
CLOSE
Current Station
Personal Weather Station
Location: Foster City, CA
Elevation: 7 ft
Nearby Weather Stations

Elev 7 ft 37.55 °N, 122.26 °W | Updated 14 seconds ago

Partly Cloudy
Partly Cloudy
67.0 °F
Feels Like 67.0 °F
N
3.0
Wind Variable Wind from West
Gusts 9.0 mph

Today
High -- | Low -- °F
--% Chance of Precip.
Yesterday
High -- | Low -- °F
Precip. -- in
6:41 AM 7:33 PM
Waning Gibbous, 54% visible
Pressure 29.89 in
Visibility 10.0 miles
Clouds Few 18000 ft
Dew Point 51 °F
Humidity 57%
Rainfall 0.00 in
Snow Depth Not available.
UV 0.6 out of 12
Pollen 8.30 out of 12
Air Quality Not available.
Flu Activity Not available.
METAR KSQL 042352Z 27021G27KT 10SM FEW180 20/08 A2989
Pressure 29.89 in
Visibility 10.0 miles
Clouds Few 18000 ft
Dew Point 51 °F
Humidity 57%
Rainfall 0.00 in
Snow Depth Not available.
UV 0.6 out of 12
Pollen 8.30 out of 12
Air Quality Not available.
Flu Activity Not available.
METAR KSQL 042352Z 27021G27KT 10SM FEW180 20/08 A2989

10-Day Weather Forecast

×

Almanac

Astronomy

Sep. 04, 2015 Rise Set
Actual Time
Civil Twilight
Nautical Twilight
Astronomical Twilight
Moon
Length of Visible Light
Length of Day
Tomorrow will be .
, % of the Moon is Illuminated

Today's Extremes

State Highs State Lows

Community

WunderPhotos

Upload Photos

1,852,367 photos uploaded!

WunderBlogs® & News

Nearby

Air Quality

  Air Quality AQ Index Pollutant
Not available.

Snow Depth

Station Depth Elevation

Earthquake Activity

City Distance Mag. Time & Date
Minimum magnitude displayed is 2.5.

Coastal Water Temperatures

Place Temperature

Stations

Nearby Weather Stations

Station Location Temp. Windchill Dew Point Humidity Wind Precip. Elev Updated Type